createdAt,value
2022-10-12T00:02:03.560Z,2.88
2022-10-12T00:04:30.348Z,2.35
2022-10-12T00:06:57.078Z,2.38
2022-10-12T00:09:23.726Z,1.75
2022-10-12T00:11:50.395Z,2.40
2022-10-12T00:14:17.114Z,2.03
2022-10-12T00:16:43.831Z,2.00
2022-10-12T00:19:13.334Z,1.92
2022-10-12T00:21:40.579Z,2.15
2022-10-12T00:24:07.539Z,1.58
2022-10-12T00:26:34.199Z,1.90
2022-10-12T00:29:02.362Z,2.10
2022-10-12T00:31:30.156Z,1.58
2022-10-12T00:34:00.922Z,1.55
2022-10-12T00:36:31.793Z,1.70
2022-10-12T00:38:58.902Z,1.83
2022-10-12T00:41:29.464Z,1.63
2022-10-12T00:43:58.473Z,2.28
2022-10-12T00:46:25.226Z,1.20
2022-10-12T00:49:20.752Z,1.40
2022-10-12T00:51:52.427Z,1.60
2022-10-12T00:54:32.337Z,1.70
2022-10-12T00:57:01.617Z,2.95
2022-10-12T00:59:39.962Z,1.70
2022-10-12T01:02:06.903Z,1.42
2022-10-12T01:04:33.875Z,2.22
2022-10-12T01:07:01.164Z,1.95
2022-10-12T01:09:29.209Z,1.88
2022-10-12T01:11:58.189Z,1.55
2022-10-12T01:14:26.026Z,2.10
2022-10-12T01:17:07.066Z,1.70
2022-10-12T01:19:57.342Z,1.50
2022-10-12T01:22:24.088Z,1.55
2022-10-12T01:24:52.850Z,2.13
2022-10-12T01:27:35.095Z,1.85
2022-10-12T01:30:18.771Z,2.85
2022-10-12T01:35:33.813Z,2.25
2022-10-12T01:38:00.500Z,1.50
2022-10-12T01:40:41.780Z,2.20
2022-10-12T01:43:08.986Z,2.20
2022-10-12T01:45:36.027Z,1.70
2022-10-12T01:48:04.381Z,1.70
2022-10-12T01:50:51.273Z,2.00
2022-10-12T01:53:48.916Z,2.40
2022-10-12T01:56:27.454Z,2.88
2022-10-12T01:59:14.586Z,2.05
2022-10-12T02:01:52.261Z,3.03
2022-10-12T02:04:22.215Z,2.00
2022-10-12T02:07:00.278Z,1.63
2022-10-12T02:09:29.937Z,3.13
2022-10-12T02:12:04.742Z,2.08
2022-10-12T02:14:38.763Z,2.33
2022-10-12T02:17:11.025Z,2.05
2022-10-12T02:19:43.971Z,2.67
2022-10-12T02:22:12.000Z,2.10
2022-10-12T02:24:41.541Z,2.00
2022-10-12T02:27:10.981Z,2.08
2022-10-12T02:29:40.814Z,1.73
2022-10-12T02:32:19.601Z,1.90
2022-10-12T02:35:10.341Z,2.00
2022-10-12T02:37:51.977Z,2.10
2022-10-12T02:40:29.012Z,1.98
2022-10-12T02:43:11.191Z,2.70
2022-10-12T02:45:43.856Z,1.85
2022-10-12T02:48:16.355Z,2.63
2022-10-12T02:50:44.754Z,3.03
2022-10-12T02:53:12.757Z,1.80
2022-10-12T02:55:48.616Z,2.78
2022-10-12T02:58:15.478Z,1.83
2022-10-12T03:00:42.182Z,2.17
2022-10-12T03:03:09.032Z,2.80
2022-10-12T03:05:35.740Z,2.92
2022-10-12T03:08:02.344Z,4.65
2022-10-12T03:10:29.015Z,2.63
2022-10-12T03:12:55.718Z,2.47
2022-10-12T03:15:22.453Z,3.65
2022-10-12T03:17:49.176Z,3.28
2022-10-12T03:20:15.822Z,2.92
2022-10-12T03:22:42.486Z,3.40
2022-10-12T03:25:09.296Z,3.03
2022-10-12T03:27:36.055Z,2.47
2022-10-12T03:30:02.983Z,2.28
2022-10-12T03:32:29.609Z,3.40
2022-10-12T03:34:56.985Z,2.88
2022-10-12T03:37:23.630Z,3.28
2022-10-12T03:39:50.257Z,2.40
2022-10-12T03:42:16.898Z,3.40
2022-10-12T03:44:43.534Z,3.17
2022-10-12T03:47:10.270Z,3.08
2022-10-12T03:49:36.920Z,3.10
2022-10-12T03:52:03.967Z,3.40
2022-10-12T03:54:30.947Z,3.00
2022-10-12T03:56:57.634Z,3.42
2022-10-12T03:59:24.383Z,3.47
2022-10-12T04:01:51.530Z,3.30
2022-10-12T04:04:18.352Z,3.22
2022-10-12T04:06:45.231Z,2.17
2022-10-12T04:09:12.050Z,5.22
2022-10-12T04:11:38.617Z,3.00
2022-10-12T04:14:05.399Z,3.05
2022-10-12T04:16:32.138Z,4.00
2022-10-12T04:18:58.727Z,3.47
2022-10-12T04:21:25.913Z,3.22
2022-10-12T04:23:52.629Z,3.08
2022-10-12T04:26:19.350Z,3.53
2022-10-12T04:28:46.083Z,3.70
2022-10-12T04:31:12.823Z,3.58
2022-10-12T04:33:39.451Z,2.97
2022-10-12T04:36:06.417Z,3.47
2022-10-12T04:38:33.070Z,4.43
2022-10-12T04:40:59.725Z,3.53
2022-10-12T04:43:26.365Z,4.18
2022-10-12T04:45:57.594Z,4.55
2022-10-12T04:48:25.315Z,4.15
2022-10-12T04:50:52.546Z,3.42
2022-10-12T04:53:19.744Z,4.10
2022-10-12T04:55:46.563Z,4.53
2022-10-12T04:58:13.683Z,4.30
2022-10-12T05:00:40.360Z,3.63
2022-10-12T05:03:07.075Z,3.65
2022-10-12T05:05:34.657Z,3.55
2022-10-12T05:08:01.289Z,3.33
2022-10-12T05:10:28.212Z,3.20
2022-10-12T05:12:55.098Z,3.88
2022-10-12T05:15:21.775Z,4.03
2022-10-12T05:17:48.497Z,3.72
2022-10-12T05:20:15.171Z,3.78
2022-10-12T05:22:41.919Z,3.30
2022-10-12T05:25:09.260Z,3.25
2022-10-12T05:27:36.006Z,3.13
2022-10-12T05:30:04.427Z,4.70
2022-10-12T05:32:31.349Z,3.95
2022-10-12T05:34:58.434Z,3.53
2022-10-12T05:37:25.194Z,4.22
2022-10-12T05:39:52.142Z,3.05
2022-10-12T05:42:19.031Z,3.95
2022-10-12T05:44:45.869Z,3.55
2022-10-12T05:47:12.613Z,3.60
2022-10-12T05:49:39.253Z,4.22
2022-10-12T05:52:06.042Z,4.22
2022-10-12T05:54:32.825Z,4.18
2022-10-12T05:56:59.586Z,3.85
2022-10-12T05:59:26.180Z,3.88
2022-10-12T06:01:53.014Z,4.50
2022-10-12T06:04:19.985Z,3.90
2022-10-12T06:06:46.764Z,3.33
2022-10-12T06:09:13.565Z,3.60
2022-10-12T06:11:40.638Z,4.22
2022-10-12T06:14:07.482Z,5.20
2022-10-12T06:16:34.135Z,3.67
2022-10-12T06:19:00.831Z,3.63
2022-10-12T06:21:34.963Z,4.40
2022-10-12T06:24:02.157Z,4.03
2022-10-12T06:26:29.096Z,4.00
2022-10-12T06:28:55.973Z,4.03
2022-10-12T06:31:22.860Z,4.65
2022-10-12T06:33:51.181Z,3.58
2022-10-12T06:36:18.216Z,3.22
2022-10-12T06:38:44.950Z,3.72
2022-10-12T06:41:11.972Z,3.33
2022-10-12T06:43:38.597Z,3.92
2022-10-12T06:46:05.542Z,4.28
2022-10-12T06:48:32.159Z,4.60
2022-10-12T06:50:58.912Z,3.83
2022-10-12T06:53:28.865Z,3.78
2022-10-12T06:55:55.637Z,3.65
2022-10-12T06:58:22.397Z,4.38
2022-10-12T07:00:49.146Z,3.28
2022-10-12T07:03:17.733Z,4.03
2022-10-12T07:05:44.397Z,3.22
2022-10-12T07:08:11.083Z,2.85
2022-10-12T07:10:37.770Z,2.80
2022-10-12T07:13:04.430Z,2.92
2022-10-12T07:15:31.097Z,3.92
2022-10-12T07:17:57.785Z,3.35
2022-10-12T07:20:24.545Z,4.50
2022-10-12T07:22:53.063Z,3.20
2022-10-12T07:25:20.044Z,4.15
2022-10-12T07:27:49.006Z,3.03
2022-10-12T07:30:15.706Z,3.92
2022-10-12T07:32:44.570Z,3.60
2022-10-12T07:35:11.318Z,3.67
2022-10-12T07:37:38.278Z,5.22
2022-10-12T07:40:05.900Z,4.20
2022-10-12T07:42:32.622Z,4.38
2022-10-12T07:44:59.339Z,3.67
2022-10-12T07:47:26.042Z,3.80
2022-10-12T07:49:52.690Z,4.25
2022-10-12T07:52:19.420Z,4.20
2022-10-12T07:54:46.270Z,5.63
2022-10-12T07:57:12.923Z,4.22
2022-10-12T07:59:39.683Z,3.30
2022-10-12T08:02:06.930Z,4.00
2022-10-12T08:04:33.751Z,3.47
2022-10-12T08:07:00.487Z,4.32
2022-10-12T08:09:27.226Z,4.13
2022-10-12T08:11:53.993Z,3.75
2022-10-12T08:14:20.825Z,3.38
2022-10-12T08:16:47.668Z,3.80
2022-10-12T08:19:15.223Z,4.10
2022-10-12T08:21:42.902Z,3.72
2022-10-12T08:24:13.259Z,2.83
2022-10-12T08:26:40.296Z,3.30
2022-10-12T08:29:08.508Z,5.53
2022-10-12T08:31:35.409Z,3.90
2022-10-12T08:34:02.317Z,3.05
2022-10-12T08:36:28.996Z,2.92
2022-10-12T08:38:55.985Z,3.17
2022-10-12T08:41:34.875Z,4.07
2022-10-12T08:44:07.706Z,2.78
2022-10-12T08:46:34.667Z,3.35
2022-10-12T08:49:28.675Z,2.45
2022-10-12T08:51:57.891Z,2.33
2022-10-12T08:54:28.951Z,2.70
2022-10-12T08:56:57.142Z,2.92
2022-10-12T08:59:26.267Z,3.50
2022-10-12T09:02:18.571Z,2.60
2022-10-12T09:04:58.886Z,2.42
2022-10-12T09:07:52.056Z,2.80
2022-10-12T09:10:44.240Z,2.20
2022-10-12T09:13:56.033Z,1.90
2022-10-12T09:16:29.275Z,1.90
2022-10-12T09:21:27.755Z,2.00
2022-10-12T09:23:57.223Z,1.90
2022-10-12T09:26:44.888Z,2.25
2022-10-12T09:29:23.810Z,2.30
2022-10-12T09:31:50.441Z,1.65
2022-10-12T09:34:19.330Z,1.80
2022-10-12T09:36:46.639Z,2.00
2022-10-12T09:39:17.140Z,1.90
2022-10-12T09:41:45.836Z,1.65
2022-10-12T09:44:20.562Z,2.20
2022-10-12T09:46:55.402Z,1.80
2022-10-12T09:49:22.287Z,1.35
2022-10-12T09:51:59.788Z,1.65
2022-10-12T09:54:28.198Z,1.58
2022-10-12T09:56:55.748Z,1.63
2022-10-12T09:59:32.185Z,1.48
2022-10-12T10:02:09.807Z,2.15
2022-10-12T10:04:37.779Z,1.80
2022-10-12T10:07:31.328Z,1.55
2022-10-12T10:10:13.517Z,1.90
2022-10-12T10:12:59.137Z,1.90
2022-10-12T10:15:28.674Z,1.17
2022-10-12T10:17:59.878Z,1.20
2022-10-12T10:20:28.601Z,1.23
2022-10-12T10:22:55.603Z,3.88
2022-10-12T10:25:24.385Z,1.33
2022-10-12T10:28:10.628Z,1.40
2022-10-12T10:30:40.744Z,1.00
2022-10-12T10:33:17.197Z,1.02
2022-10-12T10:36:13.223Z,1.20
2022-10-12T10:39:07.381Z,1.35
2022-10-12T10:41:42.939Z,1.10
2022-10-12T10:44:25.283Z,1.48
2022-10-12T10:46:53.547Z,0.90
2022-10-12T10:49:47.060Z,1.48
2022-10-12T10:52:42.728Z,1.15
2022-10-12T10:55:26.903Z,1.00
2022-10-12T10:57:59.642Z,1.30
2022-10-12T11:00:45.121Z,1.00
2022-10-12T11:05:54.758Z,1.00
2022-10-12T11:08:25.915Z,1.20
2022-10-12T11:11:12.792Z,1.13
2022-10-12T11:13:44.855Z,0.90
2022-10-12T11:16:37.655Z,1.20
2022-10-12T11:19:37.449Z,0.97
2022-10-12T11:22:10.869Z,1.05
2022-10-12T11:24:59.939Z,1.35
2022-10-12T11:27:41.543Z,0.95
2022-10-12T11:30:17.536Z,1.00
2022-10-12T11:33:09.304Z,0.82
2022-10-12T11:35:38.605Z,0.90
2022-10-12T11:38:16.710Z,0.93
2022-10-12T11:41:13.786Z,0.70
2022-10-12T11:44:01.342Z,0.80
2022-10-12T11:46:35.850Z,0.90
2022-10-12T11:49:17.221Z,1.05
2022-10-12T11:51:48.428Z,1.20
2022-10-12T11:54:27.854Z,0.70
2022-10-12T11:56:58.755Z,0.77
2022-10-12T11:59:28.441Z,0.90
2022-10-12T12:02:01.414Z,0.77
2022-10-12T12:04:48.252Z,0.82
2022-10-12T12:07:42.297Z,0.80
2022-10-12T12:10:37.382Z,1.00
2022-10-12T12:13:19.616Z,0.80
2022-10-12T12:15:52.359Z,0.80
2022-10-12T12:18:24.118Z,0.70
2022-10-12T12:21:08.337Z,0.80
2022-10-12T12:23:43.651Z,0.90
2022-10-12T12:26:15.701Z,0.80
2022-10-12T12:28:49.651Z,0.70
2022-10-12T12:31:22.718Z,0.70
2022-10-12T12:34:02.690Z,0.80
2022-10-12T12:36:45.004Z,0.82
2022-10-12T12:39:32.926Z,0.52
2022-10-12T12:42:05.000Z,0.70
2022-10-12T12:44:34.896Z,0.77
2022-10-12T12:47:01.483Z,0.70
2022-10-12T12:49:39.597Z,0.70
2022-10-12T12:52:37.036Z,0.70
2022-10-12T12:55:40.490Z,0.60
2022-10-12T12:58:22.390Z,0.77
2022-10-12T13:01:24.784Z,0.80
2022-10-12T13:04:30.376Z,0.82
2022-10-12T13:07:15.974Z,0.68
2022-10-12T13:10:26.165Z,0.90
2022-10-12T13:13:12.889Z,1.10
2022-10-12T13:15:51.984Z,0.85
2022-10-12T13:18:47.657Z,1.08
2022-10-12T13:21:22.729Z,1.02
2022-10-12T13:23:55.281Z,1.00
2022-10-12T13:26:27.870Z,1.00
2022-10-12T13:28:55.851Z,0.90
2022-10-12T13:31:34.880Z,0.95
2022-10-12T13:34:25.554Z,1.00
2022-10-12T13:37:09.825Z,0.82
2022-10-12T13:39:43.357Z,0.88
2022-10-12T13:42:16.130Z,0.90
2022-10-12T13:44:44.603Z,0.90
2022-10-12T13:47:27.748Z,1.10
2022-10-12T13:49:55.651Z,0.98
2022-10-12T13:52:32.926Z,0.90
2022-10-12T13:55:00.937Z,0.95
2022-10-12T13:57:39.856Z,0.90
2022-10-12T14:00:16.200Z,0.90
2022-10-12T14:02:53.754Z,1.10
2022-10-12T14:05:24.286Z,1.08
2022-10-12T14:07:53.692Z,1.00
2022-10-12T14:10:36.454Z,0.80
2022-10-12T14:13:05.164Z,0.90
2022-10-12T14:15:38.607Z,0.73
2022-10-12T14:18:25.592Z,0.80
2022-10-12T14:21:25.540Z,1.08
2022-10-12T14:23:57.561Z,0.88
2022-10-12T14:26:24.266Z,1.00
2022-10-12T14:28:51.939Z,0.70
2022-10-12T14:31:18.923Z,0.88
2022-10-12T14:33:46.079Z,1.00
2022-10-12T14:36:15.599Z,0.93
2022-10-12T14:38:43.886Z,0.73
2022-10-12T14:41:28.862Z,0.80
2022-10-12T14:44:16.297Z,0.88
2022-10-12T14:46:57.207Z,0.98
2022-10-12T14:49:27.101Z,0.90
2022-10-12T14:51:55.493Z,1.00
2022-10-12T14:54:23.688Z,0.85
2022-10-12T14:56:50.562Z,0.90
2022-10-12T14:59:17.645Z,0.82
2022-10-12T15:01:47.660Z,1.13
2022-10-12T15:04:18.060Z,0.90
2022-10-12T15:06:50.551Z,0.90
2022-10-12T15:09:17.921Z,1.13
2022-10-12T15:11:44.782Z,0.90
2022-10-12T15:14:12.174Z,0.90
2022-10-12T15:16:39.160Z,1.05
2022-10-12T15:19:05.881Z,0.80
2022-10-12T15:21:32.713Z,0.80
2022-10-12T15:23:59.788Z,0.80
2022-10-12T15:26:26.960Z,0.90
2022-10-12T15:28:53.664Z,1.00
2022-10-12T15:31:20.552Z,0.93
2022-10-12T15:33:47.252Z,0.80
2022-10-12T15:36:14.020Z,1.10
2022-10-12T15:38:40.709Z,0.80
2022-10-12T15:41:17.248Z,0.80
2022-10-12T15:43:53.087Z,0.88
2022-10-12T15:46:19.896Z,1.00
2022-10-12T15:48:46.569Z,0.85
2022-10-12T15:51:23.681Z,1.10
2022-10-12T15:53:54.971Z,0.90
2022-10-12T15:56:22.584Z,0.80
2022-10-12T15:58:52.489Z,0.98
2022-10-12T16:01:20.781Z,0.90
2022-10-12T16:03:48.637Z,0.90
2022-10-12T16:06:16.046Z,0.93
2022-10-12T16:08:43.062Z,1.10
2022-10-12T16:11:13.163Z,1.02
2022-10-12T16:13:46.819Z,1.00
2022-10-12T16:16:17.701Z,1.33
2022-10-12T16:18:44.941Z,1.40
2022-10-12T16:21:12.301Z,1.30
2022-10-12T16:23:40.325Z,1.27
2022-10-12T16:26:11.522Z,1.23
2022-10-12T16:28:41.626Z,1.20
2022-10-12T16:31:11.019Z,1.33
2022-10-12T16:33:38.117Z,1.10
2022-10-12T16:36:10.816Z,1.00
2022-10-12T16:38:37.645Z,1.10
2022-10-12T16:41:16.136Z,1.05
2022-10-12T16:43:43.831Z,1.10
2022-10-12T16:46:10.880Z,1.23
2022-10-12T16:48:38.022Z,1.17
2022-10-12T16:51:09.170Z,1.35
2022-10-12T16:53:36.069Z,0.98
2022-10-12T16:56:05.852Z,1.00
2022-10-12T16:58:33.235Z,1.10
2022-10-12T17:01:08.971Z,1.20
2022-10-12T17:03:37.640Z,1.23
2022-10-12T17:06:04.894Z,1.00
2022-10-12T17:08:41.108Z,1.10
2022-10-12T17:11:10.628Z,1.52
2022-10-12T17:13:38.667Z,1.10
2022-10-12T17:16:25.643Z,1.08
2022-10-12T17:18:59.176Z,1.10
2022-10-12T17:21:27.005Z,1.10
2022-10-12T17:23:57.409Z,1.20
2022-10-12T17:26:24.291Z,1.35
2022-10-12T17:28:51.109Z,1.40
2022-10-12T17:31:18.196Z,1.63
2022-10-12T17:33:44.854Z,1.27
2022-10-12T17:36:13.380Z,1.50
2022-10-12T17:38:40.506Z,1.55
2022-10-12T17:41:07.194Z,1.33
2022-10-12T17:43:33.980Z,1.35
2022-10-12T17:46:02.062Z,1.42
2022-10-12T17:53:57.264Z,2.30
2022-10-12T17:56:24.931Z,2.60
2022-10-12T17:59:00.350Z,2.50
2022-10-12T18:01:28.795Z,2.53
2022-10-12T18:03:55.788Z,2.58
2022-10-12T18:06:26.519Z,4.50
2022-10-12T18:08:53.427Z,9.57
2022-10-12T18:11:22.696Z,10.85
2022-10-12T18:13:54.330Z,6.07
2022-10-12T18:16:27.067Z,3.72
2022-10-12T18:18:54.973Z,3.35
2022-10-12T18:21:24.529Z,2.97
2022-10-12T18:23:51.837Z,2.63
2022-10-12T18:26:22.620Z,2.30
2022-10-12T18:28:51.479Z,2.72
2022-10-12T18:31:23.175Z,2.72
2022-10-12T18:33:50.476Z,1.98
2022-10-12T18:36:18.343Z,3.30
2022-10-12T18:38:45.304Z,2.00
2022-10-12T18:41:23.330Z,2.30
2022-10-12T18:43:55.437Z,2.75
2022-10-12T18:46:22.638Z,3.00
2022-10-12T18:48:49.636Z,2.53
2022-10-12T18:51:20.204Z,3.13
2022-10-12T18:53:48.262Z,2.90
2022-10-12T18:56:15.215Z,1.98
2022-10-12T18:58:42.414Z,2.47
2022-10-12T19:01:18.485Z,2.20
2022-10-12T19:03:45.888Z,2.53
2022-10-12T19:06:18.977Z,1.92
2022-10-12T19:08:46.591Z,2.47
2022-10-12T19:11:14.263Z,2.35
2022-10-12T19:13:41.922Z,2.47
2022-10-12T19:16:12.619Z,2.10
2022-10-12T19:18:40.149Z,2.05
2022-10-12T19:21:09.088Z,2.30
2022-10-12T19:23:36.037Z,3.05
2022-10-12T19:26:08.933Z,3.90
2022-10-12T19:28:36.364Z,3.97
2022-10-12T19:31:09.344Z,2.15
2022-10-12T19:33:36.112Z,3.20
2022-10-12T19:36:05.211Z,2.72
2022-10-12T19:38:32.002Z,3.08
2022-10-12T19:40:58.723Z,2.60
2022-10-12T19:43:25.487Z,2.25
2022-10-12T19:45:52.177Z,2.50
2022-10-12T19:48:19.247Z,2.05
2022-10-12T19:50:46.000Z,2.50
2022-10-12T19:53:12.741Z,2.67
2022-10-12T19:55:39.503Z,2.50
2022-10-12T19:58:07.518Z,2.42
2022-10-12T20:00:37.439Z,2.38
2022-10-12T20:03:04.861Z,2.63
2022-10-12T20:05:31.588Z,2.58
2022-10-12T20:08:00.703Z,2.50
2022-10-12T20:10:27.450Z,2.10
2022-10-12T20:12:54.207Z,2.33
2022-10-12T20:15:20.907Z,2.40
2022-10-12T20:17:47.625Z,2.33
2022-10-12T20:20:14.584Z,3.30
2022-10-12T20:22:41.276Z,2.30
2022-10-12T20:25:09.846Z,2.70
2022-10-12T20:27:37.234Z,2.42
2022-10-12T20:30:05.988Z,2.83
2022-10-12T20:32:34.809Z,2.90
2022-10-12T20:35:02.240Z,2.42
2022-10-12T20:37:28.971Z,2.90
2022-10-12T20:39:55.654Z,2.42
2022-10-12T20:42:22.453Z,2.30
2022-10-12T20:44:49.620Z,3.15
2022-10-12T20:47:16.654Z,2.40
2022-10-12T20:49:44.142Z,2.90
2022-10-12T20:52:11.309Z,2.20
2022-10-12T20:54:38.420Z,2.08
2022-10-12T20:57:05.811Z,2.10
2022-10-12T20:59:34.747Z,2.05
2022-10-12T21:02:01.409Z,2.00
2022-10-12T21:04:31.074Z,2.03
2022-10-12T21:06:59.396Z,2.13
2022-10-12T21:09:26.250Z,2.33
2022-10-12T21:11:54.105Z,2.30
2022-10-12T21:14:20.957Z,1.90
2022-10-12T21:16:48.410Z,2.42
2022-10-12T21:19:16.566Z,2.67
2022-10-12T21:21:44.059Z,1.70
2022-10-12T21:24:11.133Z,2.10
2022-10-12T21:26:37.914Z,2.13
2022-10-12T21:29:05.393Z,1.75
2022-10-12T21:31:33.098Z,1.60
2022-10-12T21:34:01.800Z,1.90
2022-10-12T21:36:29.309Z,1.60
2022-10-12T21:38:56.436Z,1.98
2022-10-12T21:41:26.398Z,2.00
2022-10-12T21:43:53.691Z,2.42
2022-10-12T21:46:26.672Z,2.30
2022-10-12T21:48:53.925Z,1.80
2022-10-12T21:51:22.228Z,1.73
2022-10-12T21:53:49.667Z,1.92
2022-10-12T21:56:26.236Z,1.90
2022-10-12T21:58:54.062Z,2.15
2022-10-12T22:01:22.950Z,1.70
2022-10-12T22:04:00.545Z,1.73
2022-10-12T22:06:28.844Z,1.50
2022-10-12T22:09:01.781Z,1.33
2022-10-12T22:11:30.266Z,1.58
2022-10-12T22:13:59.402Z,2.05
2022-10-12T22:16:26.582Z,1.70
2022-10-12T22:18:53.241Z,1.83
2022-10-12T22:21:19.952Z,2.03
2022-10-12T22:23:46.788Z,1.65
2022-10-12T22:26:19.398Z,1.98
2022-10-12T22:28:46.742Z,1.88
2022-10-12T22:31:15.832Z,1.70
2022-10-12T22:33:42.558Z,1.80
2022-10-12T22:36:11.424Z,2.00
2022-10-12T22:38:38.157Z,1.90
2022-10-12T22:41:11.905Z,2.05
2022-10-12T22:43:38.945Z,1.88
2022-10-12T22:46:06.081Z,2.60
2022-10-12T22:48:34.071Z,2.40
2022-10-12T22:51:00.883Z,1.77
2022-10-12T22:53:28.999Z,3.17
2022-10-12T22:56:00.877Z,1.40
2022-10-12T22:58:28.614Z,1.60
2022-10-12T23:01:03.941Z,1.52
2022-10-12T23:03:33.888Z,1.85
2022-10-12T23:06:00.595Z,1.52
2022-10-12T23:08:28.052Z,1.33
2022-10-12T23:10:55.434Z,1.63
2022-10-12T23:13:22.119Z,1.67
2022-10-12T23:15:48.801Z,1.92
2022-10-12T23:18:15.906Z,1.70
2022-10-12T23:20:42.593Z,2.25
2022-10-12T23:23:09.371Z,2.63
2022-10-12T23:25:36.043Z,1.60
2022-10-12T23:28:02.761Z,1.70
2022-10-12T23:30:29.626Z,1.95
2022-10-12T23:32:56.270Z,2.30
2022-10-12T23:35:22.959Z,2.03
2022-10-12T23:37:49.555Z,1.73
2022-10-12T23:40:16.409Z,1.70
2022-10-12T23:42:43.114Z,1.67
2022-10-12T23:45:09.874Z,1.70
2022-10-12T23:47:36.611Z,2.20
2022-10-12T23:50:03.662Z,1.70
2022-10-12T23:52:30.342Z,2.13
2022-10-12T23:54:57.035Z,2.28
2022-10-12T23:57:45.667Z,1.30
